createdAt,value
2019-03-10T00:00:41.956Z,1006.05
2019-03-10T00:01:41.929Z,1006.04
2019-03-10T00:02:41.907Z,1005.96
2019-03-10T00:03:41.888Z,1005.95
2019-03-10T00:04:41.854Z,1005.90
2019-03-10T00:05:41.834Z,1005.97
2019-03-10T00:06:41.804Z,1005.92
2019-03-10T00:07:41.783Z,1005.91
2019-03-10T00:08:41.769Z,1005.92
2019-03-10T00:09:41.728Z,1005.91
2019-03-10T00:10:41.704Z,1005.91
2019-03-10T00:11:41.684Z,1005.87
2019-03-10T00:12:41.654Z,1005.88
2019-03-10T00:13:41.629Z,1005.92
2019-03-10T00:14:41.602Z,1005.84
2019-03-10T00:15:41.584Z,1005.90
2019-03-10T00:16:41.554Z,1005.98
2019-03-10T00:17:41.530Z,1005.91
2019-03-10T00:18:41.502Z,1005.89
2019-03-10T00:19:41.476Z,1005.93
2019-03-10T00:20:41.451Z,1005.90
2019-03-10T00:21:41.429Z,1005.87
2019-03-10T00:22:41.402Z,1005.86
2019-03-10T00:23:41.379Z,1005.90
2019-03-10T00:24:41.351Z,1005.86
2019-03-10T00:25:41.327Z,1005.85
2019-03-10T00:26:41.300Z,1005.91
2019-03-10T00:27:41.297Z,1005.91
2019-03-10T00:28:41.258Z,1005.87
2019-03-10T00:29:41.232Z,1005.79
2019-03-10T00:30:41.201Z,1005.82
2019-03-10T00:31:41.174Z,1005.76
2019-03-10T00:32:41.151Z,1005.77
2019-03-10T00:33:41.132Z,1005.66
2019-03-10T00:34:41.100Z,1005.64
2019-03-10T00:35:41.075Z,1005.62
2019-03-10T00:36:41.050Z,1005.69
2019-03-10T00:37:41.028Z,1005.67
2019-03-10T00:38:40.999Z,1005.67
2019-03-10T00:39:40.974Z,1005.70
2019-03-10T00:40:40.963Z,1005.70
2019-03-10T00:41:41.002Z,1005.64
2019-03-10T00:42:40.900Z,1005.58
2019-03-10T00:43:40.874Z,1005.61
2019-03-10T00:44:40.849Z,1005.53
2019-03-10T00:45:40.830Z,1005.55
2019-03-10T00:46:40.808Z,1005.52
2019-03-10T00:47:40.772Z,1005.49
2019-03-10T00:48:40.748Z,1005.50
2019-03-10T00:49:40.765Z,1005.48
2019-03-10T00:50:40.697Z,1005.48
2019-03-10T00:51:40.675Z,1005.49
2019-03-10T00:52:40.651Z,1005.51
2019-03-10T00:53:40.621Z,1005.47
2019-03-10T00:54:40.597Z,1005.44
2019-03-10T00:55:40.573Z,1005.44
2019-03-10T00:56:40.549Z,1005.43
2019-03-10T00:57:40.521Z,1005.40
2019-03-10T00:58:40.496Z,1005.39
2019-03-10T00:59:40.469Z,1005.37
2019-03-10T01:00:40.444Z,1005.39
2019-03-10T01:01:40.419Z,1005.30
2019-03-10T01:02:40.394Z,1005.30
2019-03-10T01:03:40.371Z,1005.30
2019-03-10T01:04:40.344Z,1005.37
2019-03-10T01:05:40.320Z,1005.28
2019-03-10T01:06:40.294Z,1005.30
2019-03-10T01:07:40.269Z,1005.26
2019-03-10T01:08:40.245Z,1005.20
2019-03-10T01:09:40.221Z,1005.24
2019-03-10T01:10:40.194Z,1005.23
2019-03-10T01:11:40.168Z,1005.21
2019-03-10T01:12:40.143Z,1005.22
2019-03-10T01:13:40.117Z,1005.18
2019-03-10T01:14:40.098Z,1005.19
2019-03-10T01:15:40.067Z,1005.12
2019-03-10T01:16:40.050Z,1005.11
2019-03-10T01:17:40.017Z,1005.05
2019-03-10T01:18:39.994Z,1005.06
2019-03-10T01:19:39.966Z,1005.04
2019-03-10T01:20:39.941Z,1005.00
2019-03-10T01:21:39.917Z,1005.05
2019-03-10T01:22:39.892Z,1005.04
2019-03-10T01:23:39.866Z,1005.02
2019-03-10T01:24:39.841Z,1005.00
2019-03-10T01:25:39.815Z,1004.93
2019-03-10T01:26:39.796Z,1004.88
2019-03-10T01:27:39.765Z,1004.87
2019-03-10T01:28:39.739Z,1004.82
2019-03-10T01:29:39.715Z,1004.82
2019-03-10T01:30:39.689Z,1004.84
2019-03-10T01:31:39.665Z,1004.81
2019-03-10T01:32:39.715Z,1004.82
2019-03-10T01:33:39.616Z,1004.87
2019-03-10T01:34:39.599Z,1004.83
2019-03-10T01:35:39.561Z,1004.86
2019-03-10T01:36:39.536Z,1004.80
2019-03-10T01:37:39.511Z,1004.79
2019-03-10T01:38:39.487Z,1004.73
2019-03-10T01:39:39.461Z,1004.67
2019-03-10T01:40:39.434Z,1004.70
2019-03-10T01:41:39.410Z,1004.73
2019-03-10T01:42:39.384Z,1004.74
2019-03-10T01:43:39.361Z,1004.73
2019-03-10T01:44:39.333Z,1004.70
2019-03-10T01:45:39.310Z,1004.68
2019-03-10T01:46:39.282Z,1004.65
2019-03-10T01:47:39.259Z,1004.65
2019-03-10T01:48:39.232Z,1004.66
2019-03-10T01:49:39.206Z,1004.76
2019-03-10T01:50:39.192Z,1004.73
2019-03-10T01:51:39.160Z,1004.66
2019-03-10T01:52:39.129Z,1004.59
2019-03-10T01:53:39.118Z,1004.54
2019-03-10T01:54:39.080Z,1004.50
2019-03-10T01:55:39.052Z,1004.51
2019-03-10T01:56:39.028Z,1004.45
2019-03-10T01:57:39.002Z,1004.41
2019-03-10T01:58:38.978Z,1004.45
2019-03-10T01:59:38.953Z,1004.45
2019-03-10T02:00:38.925Z,1004.43
2019-03-10T02:01:38.900Z,1004.39
2019-03-10T02:02:38.876Z,1004.37
2019-03-10T02:03:38.848Z,1004.34
2019-03-10T02:04:38.848Z,1004.35
2019-03-10T02:05:38.798Z,1004.30
2019-03-10T02:06:38.773Z,1004.27
2019-03-10T02:07:38.751Z,1004.22
2019-03-10T02:08:38.724Z,1004.24
2019-03-10T02:09:38.695Z,1004.18
2019-03-10T02:10:38.689Z,1004.08
2019-03-10T02:11:38.645Z,1004.01
2019-03-10T02:12:38.621Z,1003.96
2019-03-10T02:13:38.595Z,1003.95
2019-03-10T02:14:38.570Z,1004.00
2019-03-10T02:15:38.545Z,1003.96
2019-03-10T02:16:38.518Z,1003.91
2019-03-10T02:17:38.494Z,1003.90
2019-03-10T02:18:38.467Z,1003.85
2019-03-10T02:19:38.443Z,1003.85
2019-03-10T02:20:38.430Z,1003.83
2019-03-10T02:21:38.391Z,1003.78
2019-03-10T02:22:38.366Z,1003.75
2019-03-10T02:23:38.340Z,1003.77
2019-03-10T02:24:38.314Z,1003.78
2019-03-10T02:25:38.290Z,1003.71
2019-03-10T02:26:38.268Z,1003.74
2019-03-10T02:27:38.238Z,1003.77
2019-03-10T02:28:38.215Z,1003.72
2019-03-10T02:29:38.193Z,1003.66
2019-03-10T02:30:38.164Z,1003.63
2019-03-10T02:31:38.155Z,1003.60
2019-03-10T02:32:38.111Z,1003.56
2019-03-10T02:33:38.101Z,1003.51
2019-03-10T02:34:38.072Z,1003.56
2019-03-10T02:35:38.037Z,1003.46
2019-03-10T02:36:38.017Z,1003.45
2019-03-10T02:37:38.015Z,1003.40
2019-03-10T02:38:37.960Z,1003.37
2019-03-10T02:39:37.938Z,1003.37
2019-03-10T02:40:37.910Z,1003.31
2019-03-10T02:41:37.885Z,1003.27
2019-03-10T02:42:37.867Z,1003.26
2019-03-10T02:43:37.881Z,1003.23
2019-03-10T02:44:37.811Z,1003.26
2019-03-10T02:45:37.783Z,1003.19
2019-03-10T02:46:37.762Z,1003.13
2019-03-10T02:47:37.753Z,1003.13
2019-03-10T02:48:37.708Z,1003.13
2019-03-10T02:49:37.719Z,1003.13
2019-03-10T02:50:37.657Z,1003.10
2019-03-10T02:51:37.642Z,1003.09
2019-03-10T02:52:37.607Z,1003.03
2019-03-10T02:53:37.583Z,1003.03
2019-03-10T02:54:37.557Z,1003.02
2019-03-10T02:55:37.531Z,1003.00
2019-03-10T02:56:37.505Z,1003.01
2019-03-10T02:57:37.481Z,1002.98
2019-03-10T02:58:37.478Z,1002.96
2019-03-10T02:59:37.432Z,1002.94
2019-03-10T03:00:37.408Z,1002.95
2019-03-10T03:01:37.383Z,1002.89
2019-03-10T03:02:37.371Z,1002.88
2019-03-10T03:03:37.332Z,1002.94
2019-03-10T03:04:37.308Z,1002.91
2019-03-10T03:05:37.282Z,1002.91
2019-03-10T03:06:37.257Z,1002.86
2019-03-10T03:07:37.237Z,1002.86
2019-03-10T03:08:37.212Z,1002.83
2019-03-10T03:09:37.192Z,1002.81
2019-03-10T03:10:37.154Z,1002.81
2019-03-10T03:11:37.130Z,1002.84
2019-03-10T03:12:37.106Z,1002.75
2019-03-10T03:13:37.081Z,1002.72
2019-03-10T03:14:37.056Z,1002.70
2019-03-10T03:15:37.048Z,1002.65
2019-03-10T03:16:37.005Z,1002.60
2019-03-10T03:17:37.032Z,1002.58
2019-03-10T03:18:36.959Z,1002.55
2019-03-10T03:19:37.017Z,1002.48
2019-03-10T03:20:36.905Z,1002.54
2019-03-10T03:21:42.959Z,1002.50
2019-03-10T03:22:36.853Z,1002.50
2019-03-10T03:23:36.829Z,1002.50
2019-03-10T03:24:36.805Z,1002.49
2019-03-10T03:25:36.870Z,1002.49
2019-03-10T03:26:36.757Z,1002.45
2019-03-10T03:27:36.728Z,1002.47
2019-03-10T03:28:36.707Z,1002.44
2019-03-10T03:29:36.681Z,1002.43
2019-03-10T03:30:36.663Z,1002.36
2019-03-10T03:31:36.631Z,1002.33
2019-03-10T03:32:36.613Z,1002.32
2019-03-10T03:33:36.588Z,1002.29
2019-03-10T03:34:36.560Z,1002.28
2019-03-10T03:35:36.528Z,1002.23
2019-03-10T03:36:36.503Z,1002.14
2019-03-10T03:37:36.481Z,1002.11
2019-03-10T03:38:36.456Z,1002.08
2019-03-10T03:39:36.429Z,1002.06
2019-03-10T03:40:36.405Z,1002.05
2019-03-10T03:41:36.383Z,1002.02
2019-03-10T03:42:36.364Z,1002.00
2019-03-10T03:43:36.329Z,1001.94
2019-03-10T03:44:36.306Z,1001.92
2019-03-10T03:45:36.278Z,1001.92
2019-03-10T03:46:36.260Z,1001.91
2019-03-10T03:47:36.228Z,1001.87
2019-03-10T03:48:36.203Z,1001.86
2019-03-10T03:49:36.183Z,1001.84
2019-03-10T03:50:36.154Z,1001.85
2019-03-10T03:51:36.130Z,1001.80
2019-03-10T03:52:36.106Z,1001.76
2019-03-10T03:53:36.081Z,1001.76
2019-03-10T03:54:36.057Z,1001.80
2019-03-10T03:55:36.030Z,1001.81
2019-03-10T03:56:36.004Z,1001.78
2019-03-10T03:57:35.981Z,1001.72
2019-03-10T03:58:35.957Z,1001.67
2019-03-10T03:59:35.929Z,1001.69
2019-03-10T04:00:35.906Z,1001.65
2019-03-10T04:01:35.882Z,1001.67
2019-03-10T04:02:35.855Z,1001.65
2019-03-10T04:03:35.834Z,1001.61
2019-03-10T04:04:35.902Z,1001.62
2019-03-10T04:05:35.781Z,1001.54
2019-03-10T04:06:35.756Z,1001.55
2019-03-10T04:07:35.730Z,1001.54
2019-03-10T04:08:35.704Z,1001.52
2019-03-10T04:09:35.680Z,1001.59
2019-03-10T04:10:35.654Z,1001.49
2019-03-10T04:11:35.627Z,1001.49
2019-03-10T04:12:35.605Z,1001.47
2019-03-10T04:13:35.582Z,1001.51
2019-03-10T04:14:35.554Z,1001.47
2019-03-10T04:15:35.534Z,1001.46
2019-03-10T04:16:35.504Z,1001.42
2019-03-10T04:17:35.480Z,1001.40
2019-03-10T04:18:35.453Z,1001.38
2019-03-10T04:19:35.425Z,1001.42
2019-03-10T04:20:35.403Z,1001.33
2019-03-10T04:21:35.376Z,1001.30
2019-03-10T04:22:35.365Z,1001.28
2019-03-10T04:23:35.327Z,1001.30
2019-03-10T04:24:35.299Z,1001.31
2019-03-10T04:25:35.273Z,1001.29
2019-03-10T04:26:35.251Z,1001.24
2019-03-10T04:27:35.223Z,1001.24
2019-03-10T04:28:35.200Z,1001.19
2019-03-10T04:29:35.175Z,1001.22
2019-03-10T04:30:35.148Z,1001.09
2019-03-10T04:31:35.121Z,1001.11
2019-03-10T04:32:35.097Z,1001.11
2019-03-10T04:33:35.073Z,1001.07
2019-03-10T04:34:35.050Z,1001.05
2019-03-10T04:35:35.021Z,1001.00
2019-03-10T04:36:34.997Z,1000.98
2019-03-10T04:37:34.976Z,1000.99
2019-03-10T04:38:34.946Z,1000.96
2019-03-10T04:39:34.920Z,1000.94
2019-03-10T04:40:34.898Z,1000.87
2019-03-10T04:41:34.883Z,1000.83
2019-03-10T04:42:34.854Z,1000.80
2019-03-10T04:43:34.819Z,1000.81
2019-03-10T04:44:36.303Z,1000.76
2019-03-10T04:45:34.768Z,1000.73
2019-03-10T04:46:34.742Z,1000.76
2019-03-10T04:47:34.720Z,1000.71
2019-03-10T04:48:34.691Z,1000.68
2019-03-10T04:49:34.666Z,1000.65
2019-03-10T04:50:34.643Z,1000.62
2019-03-10T04:51:34.617Z,1000.58
2019-03-10T04:52:34.593Z,1000.59
2019-03-10T04:53:34.567Z,1000.61
2019-03-10T04:54:34.540Z,1000.56
2019-03-10T04:55:34.515Z,1000.60
2019-03-10T04:56:34.492Z,1000.63
2019-03-10T04:57:34.465Z,1000.58
2019-03-10T04:58:34.442Z,1000.60
2019-03-10T04:59:34.416Z,1000.55
2019-03-10T05:00:34.389Z,1000.54
2019-03-10T05:01:34.366Z,1000.52
2019-03-10T05:02:34.344Z,1000.51
2019-03-10T05:03:34.315Z,1000.48
2019-03-10T05:04:34.290Z,1000.43
2019-03-10T05:05:34.264Z,1000.44
2019-03-10T05:06:34.240Z,1000.46
2019-03-10T05:07:34.214Z,1000.46
2019-03-10T05:08:34.190Z,1000.46
2019-03-10T05:09:34.164Z,1000.43
2019-03-10T05:10:34.139Z,1000.42
2019-03-10T05:11:34.114Z,1000.42
2019-03-10T05:12:34.088Z,1000.37
2019-03-10T05:13:34.066Z,1000.35
2019-03-10T05:14:34.038Z,1000.31
2019-03-10T05:15:34.013Z,1000.30
2019-03-10T05:16:33.991Z,1000.25
2019-03-10T05:17:33.967Z,1000.25
2019-03-10T05:18:33.937Z,1000.22
2019-03-10T05:19:33.914Z,1000.15
2019-03-10T05:20:33.890Z,1000.13
2019-03-10T05:21:33.880Z,1000.10
2019-03-10T05:22:33.842Z,1000.08
2019-03-10T05:23:33.815Z,999.99
2019-03-10T05:24:33.785Z,999.97
2019-03-10T05:25:33.762Z,999.92
2019-03-10T05:26:33.735Z,999.95
2019-03-10T05:27:33.712Z,999.89
2019-03-10T05:28:33.691Z,999.85
2019-03-10T05:29:33.660Z,999.86
2019-03-10T05:30:33.635Z,999.82
2019-03-10T05:31:33.610Z,999.84
2019-03-10T05:32:33.586Z,999.84
2019-03-10T05:33:33.558Z,999.86
2019-03-10T05:34:33.543Z,999.80
2019-03-10T05:35:33.508Z,999.76
2019-03-10T05:36:33.484Z,999.71
2019-03-10T05:37:33.461Z,999.68
2019-03-10T05:38:33.440Z,999.66
2019-03-10T05:39:33.409Z,999.63
2019-03-10T05:40:33.387Z,999.64
2019-03-10T05:41:33.359Z,999.58
2019-03-10T05:42:33.334Z,999.56
2019-03-10T05:43:33.309Z,999.57
2019-03-10T05:44:33.345Z,999.52
2019-03-10T05:45:33.260Z,999.57
2019-03-10T05:46:33.238Z,999.50
2019-03-10T05:47:33.213Z,999.52
2019-03-10T05:48:33.186Z,999.49
2019-03-10T05:49:33.160Z,999.48
2019-03-10T05:50:33.139Z,999.37
2019-03-10T05:51:33.110Z,999.35
2019-03-10T05:52:33.086Z,999.28
2019-03-10T05:53:33.063Z,999.24
2019-03-10T05:54:33.040Z,999.19
2019-03-10T05:55:33.013Z,999.18
2019-03-10T05:56:32.988Z,999.09
2019-03-10T05:57:32.968Z,999.09
2019-03-10T05:58:35.115Z,999.07
2019-03-10T05:59:32.916Z,999.06
2019-03-10T06:00:42.153Z,999.06
2019-03-10T06:01:32.869Z,998.98
2019-03-10T06:02:32.845Z,998.98
2019-03-10T06:03:32.818Z,998.95
2019-03-10T06:04:32.791Z,998.90
2019-03-10T06:05:32.767Z,998.83
2019-03-10T06:06:32.758Z,998.83
2019-03-10T06:07:32.718Z,998.80
2019-03-10T06:08:32.808Z,998.82
2019-03-10T06:09:32.669Z,998.83
2019-03-10T06:10:32.651Z,998.79
2019-03-10T06:11:32.875Z,998.79
2019-03-10T06:12:32.595Z,998.81
2019-03-10T06:13:32.626Z,998.79
2019-03-10T06:14:32.549Z,998.79
2019-03-10T06:15:32.526Z,998.68
2019-03-10T06:16:32.498Z,998.66
2019-03-10T06:17:32.477Z,998.69
2019-03-10T06:18:32.455Z,998.65
2019-03-10T06:19:32.426Z,998.57
2019-03-10T06:20:32.422Z,998.56
2019-03-10T06:21:32.379Z,998.54
2019-03-10T06:22:32.353Z,998.48
2019-03-10T06:23:32.327Z,998.44
2019-03-10T06:24:32.305Z,998.42
2019-03-10T06:25:34.945Z,998.41
2019-03-10T06:26:32.253Z,998.37
2019-03-10T06:27:32.257Z,998.36
2019-03-10T06:28:32.204Z,998.32
2019-03-10T06:29:32.179Z,998.28
2019-03-10T06:30:32.156Z,998.27
2019-03-10T06:31:32.130Z,998.23
2019-03-10T06:32:32.106Z,998.19
2019-03-10T06:33:32.082Z,998.17
2019-03-10T06:34:32.057Z,998.10
2019-03-10T06:35:32.058Z,998.14
2019-03-10T06:36:32.010Z,998.07
2019-03-10T06:37:31.983Z,998.03
2019-03-10T06:38:31.965Z,998.05
2019-03-10T06:39:31.935Z,998.01
2019-03-10T06:40:32.648Z,998.00
2019-03-10T06:41:31.886Z,997.95
2019-03-10T06:42:31.885Z,997.94
2019-03-10T06:43:31.836Z,997.90
2019-03-10T06:44:31.820Z,997.84
2019-03-10T06:45:31.789Z,997.80
2019-03-10T06:46:31.764Z,997.77
2019-03-10T06:47:31.739Z,997.75
2019-03-10T06:48:31.715Z,997.72
2019-03-10T06:49:31.691Z,997.67
2019-03-10T06:50:31.668Z,997.72
2019-03-10T06:51:31.644Z,997.67
2019-03-10T06:52:31.617Z,997.69
2019-03-10T06:53:31.596Z,997.66
2019-03-10T06:54:31.595Z,997.72
2019-03-10T06:55:31.556Z,997.65
2019-03-10T06:56:31.520Z,997.70
2019-03-10T06:57:31.495Z,997.67
2019-03-10T06:58:31.470Z,997.60
2019-03-10T06:59:31.446Z,997.53
2019-03-10T07:00:31.425Z,997.51
2019-03-10T07:01:31.398Z,997.45
2019-03-10T07:02:31.373Z,997.37
2019-03-10T07:03:31.352Z,997.37
2019-03-10T07:04:31.326Z,997.32
2019-03-10T07:05:31.301Z,997.27
2019-03-10T07:06:31.280Z,997.29
2019-03-10T07:07:31.250Z,997.25
2019-03-10T07:08:32.684Z,997.21
2019-03-10T07:09:31.202Z,997.24
2019-03-10T07:10:31.177Z,997.22
2019-03-10T07:11:31.155Z,997.19
2019-03-10T07:12:31.128Z,997.18
2019-03-10T07:13:31.104Z,997.17
2019-03-10T07:14:31.084Z,997.11
2019-03-10T07:15:31.055Z,997.10
2019-03-10T07:16:31.032Z,997.07
2019-03-10T07:17:31.015Z,997.11
2019-03-10T07:18:30.983Z,997.13
2019-03-10T07:19:31.021Z,997.07
2019-03-10T07:20:30.934Z,997.00
2019-03-10T07:21:30.911Z,997.02
2019-03-10T07:22:30.885Z,997.02
2019-03-10T07:23:30.861Z,996.99
2019-03-10T07:24:30.881Z,996.96
2019-03-10T07:25:30.816Z,996.93
2019-03-10T07:26:30.789Z,996.89
2019-03-10T07:27:30.764Z,996.89
2019-03-10T07:28:30.742Z,996.90
2019-03-10T07:29:30.715Z,996.92
2019-03-10T07:30:30.728Z,996.90
2019-03-10T07:31:30.667Z,996.89
2019-03-10T07:32:30.643Z,996.93
2019-03-10T07:33:30.618Z,996.87
2019-03-10T07:34:30.597Z,996.90
2019-03-10T07:35:30.571Z,996.85
2019-03-10T07:36:30.563Z,996.88
2019-03-10T07:37:30.522Z,996.85
2019-03-10T07:38:30.496Z,996.73
2019-03-10T07:39:30.472Z,996.65
2019-03-10T07:40:30.448Z,996.60
2019-03-10T07:41:30.428Z,996.57
2019-03-10T07:42:30.402Z,996.55
2019-03-10T07:43:30.386Z,996.54
2019-03-10T07:44:30.351Z,996.48
2019-03-10T07:45:30.328Z,996.46
2019-03-10T07:46:30.304Z,996.43
2019-03-10T07:47:30.278Z,996.42
2019-03-10T07:48:30.256Z,996.42
2019-03-10T07:49:30.231Z,996.40
2019-03-10T07:50:30.215Z,996.36
2019-03-10T07:51:30.183Z,996.36
2019-03-10T07:52:30.161Z,996.30
2019-03-10T07:53:30.134Z,996.31
2019-03-10T07:54:30.110Z,996.28
2019-03-10T07:55:30.086Z,996.28
2019-03-10T07:56:30.061Z,996.26
2019-03-10T07:57:30.038Z,996.26
2019-03-10T07:58:30.015Z,996.22
2019-03-10T07:59:29.989Z,996.20
2019-03-10T08:00:29.970Z,996.17
2019-03-10T08:01:29.949Z,996.18
2019-03-10T08:02:29.924Z,996.13
2019-03-10T08:03:29.893Z,996.11
2019-03-10T08:04:29.868Z,996.05
2019-03-10T08:05:29.845Z,996.03
2019-03-10T08:06:29.819Z,996.05
2019-03-10T08:07:29.796Z,996.06
2019-03-10T08:08:29.773Z,996.04
2019-03-10T08:09:29.801Z,996.05
2019-03-10T08:10:29.728Z,996.07
2019-03-10T08:11:29.699Z,996.02
2019-03-10T08:12:29.675Z,995.98
2019-03-10T08:13:29.669Z,995.95
2019-03-10T08:14:29.629Z,995.94
2019-03-10T08:15:29.608Z,995.86
2019-03-10T08:16:29.588Z,995.78
2019-03-10T08:17:29.556Z,995.74
2019-03-10T08:18:29.534Z,995.74
2019-03-10T08:19:29.520Z,995.76
2019-03-10T08:20:29.482Z,995.75
2019-03-10T08:21:29.462Z,995.70
2019-03-10T08:22:29.453Z,995.68
2019-03-10T08:23:29.445Z,995.66
2019-03-10T08:24:29.387Z,995.60
2019-03-10T08:25:29.363Z,995.56
2019-03-10T08:26:29.339Z,995.58
2019-03-10T08:27:29.313Z,995.61
2019-03-10T08:28:29.294Z,995.56
2019-03-10T08:29:29.268Z,995.59
2019-03-10T08:30:29.241Z,995.52
2019-03-10T08:31:29.218Z,995.47
2019-03-10T08:32:29.190Z,995.49
2019-03-10T08:33:29.167Z,995.43
2019-03-10T08:34:29.143Z,995.37
2019-03-10T08:35:29.121Z,995.39
2019-03-10T08:36:29.095Z,995.32
2019-03-10T08:37:29.069Z,995.34
2019-03-10T08:38:29.051Z,995.33
2019-03-10T08:39:29.021Z,995.33
2019-03-10T08:40:28.997Z,995.34
2019-03-10T08:41:28.971Z,995.36
2019-03-10T08:42:28.948Z,995.32
2019-03-10T08:43:28.923Z,995.29
2019-03-10T08:44:28.900Z,995.30
2019-03-10T08:45:28.878Z,995.23
2019-03-10T08:46:28.854Z,995.13
2019-03-10T08:47:28.827Z,995.12
2019-03-10T08:48:28.804Z,995.09
2019-03-10T08:49:28.779Z,995.10
2019-03-10T08:50:28.754Z,995.07
2019-03-10T08:51:28.729Z,995.07
2019-03-10T08:52:28.707Z,995.03
2019-03-10T08:53:28.686Z,995.04
2019-03-10T08:54:28.659Z,995.00
2019-03-10T08:55:28.634Z,994.97
2019-03-10T08:56:28.624Z,994.95
2019-03-10T08:57:28.585Z,994.95
2019-03-10T08:58:28.591Z,995.01
2019-03-10T08:59:28.540Z,994.97
2019-03-10T09:00:28.512Z,994.97
2019-03-10T09:01:28.500Z,994.93
2019-03-10T09:02:28.468Z,994.93
2019-03-10T09:03:28.445Z,994.94
2019-03-10T09:04:28.414Z,994.89
2019-03-10T09:05:28.392Z,994.81
2019-03-10T09:06:28.369Z,994.75
2019-03-10T09:07:28.346Z,994.74
2019-03-10T09:08:28.317Z,994.71
2019-03-10T09:09:28.295Z,994.70
2019-03-10T09:10:28.269Z,994.70
2019-03-10T09:11:28.275Z,994.64
2019-03-10T09:12:28.224Z,994.64
2019-03-10T09:13:28.196Z,994.64
2019-03-10T09:14:28.177Z,994.58
2019-03-10T09:15:28.148Z,994.56
2019-03-10T09:16:28.126Z,994.59
2019-03-10T09:17:28.111Z,994.59
2019-03-10T09:18:28.075Z,994.58
2019-03-10T09:19:28.050Z,994.56
2019-03-10T09:20:28.026Z,994.49
2019-03-10T09:21:28.004Z,994.50
2019-03-10T09:22:27.982Z,994.47
2019-03-10T09:23:27.954Z,994.51
2019-03-10T09:24:27.935Z,994.49
2019-03-10T09:25:27.909Z,994.44
2019-03-10T09:26:27.882Z,994.44
2019-03-10T09:27:28.690Z,994.44
2019-03-10T09:28:27.851Z,994.42
2019-03-10T09:29:27.812Z,994.38
2019-03-10T09:30:27.784Z,994.37
2019-03-10T09:31:27.757Z,994.29
2019-03-10T09:32:27.733Z,994.23
2019-03-10T09:33:27.710Z,994.23
2019-03-10T09:34:27.688Z,994.24
2019-03-10T09:35:27.662Z,994.22
2019-03-10T09:36:27.642Z,994.27
2019-03-10T09:37:27.620Z,994.20
2019-03-10T09:38:27.590Z,994.12
2019-03-10T09:39:27.564Z,994.11
2019-03-10T09:40:27.541Z,994.10
2019-03-10T09:41:27.516Z,994.06
2019-03-10T09:42:27.492Z,994.03
2019-03-10T09:43:27.468Z,994.00
2019-03-10T09:44:27.443Z,994.00
2019-03-10T09:45:27.425Z,993.98
2019-03-10T09:46:27.400Z,994.01
2019-03-10T09:47:27.374Z,993.98
2019-03-10T09:48:27.348Z,993.95
2019-03-10T09:49:27.322Z,993.94
2019-03-10T09:50:27.299Z,993.90
2019-03-10T09:51:27.273Z,993.86
2019-03-10T09:52:27.251Z,993.86
2019-03-10T09:53:27.228Z,993.83
2019-03-10T09:54:27.202Z,993.81
2019-03-10T09:55:27.178Z,993.75
2019-03-10T09:56:27.159Z,993.73
2019-03-10T09:57:27.158Z,993.72
2019-03-10T09:58:27.129Z,993.69
2019-03-10T09:59:27.080Z,993.62
2019-03-10T10:00:27.115Z,993.66
2019-03-10T10:01:27.036Z,993.58
2019-03-10T10:02:27.008Z,993.55
2019-03-10T10:03:26.986Z,993.50
2019-03-10T10:04:26.962Z,993.53
2019-03-10T10:05:26.936Z,993.47
2019-03-10T10:06:26.914Z,993.46
2019-03-10T10:07:26.890Z,993.50
2019-03-10T10:08:26.866Z,993.40
2019-03-10T10:09:26.845Z,993.35
2019-03-10T10:10:26.817Z,993.26
2019-03-10T10:11:26.792Z,993.18
2019-03-10T10:12:26.819Z,993.10
2019-03-10T10:13:26.744Z,993.00
2019-03-10T10:14:26.719Z,992.96
2019-03-10T10:15:26.725Z,992.98
2019-03-10T10:16:26.691Z,993.00
2019-03-10T10:17:26.649Z,993.00
2019-03-10T10:18:26.628Z,993.03
2019-03-10T10:19:26.599Z,993.08
2019-03-10T10:20:26.997Z,993.06
2019-03-10T10:21:26.555Z,993.10
2019-03-10T10:22:26.529Z,993.11
2019-03-10T10:23:26.509Z,993.15
2019-03-10T10:24:26.481Z,993.17
2019-03-10T10:25:26.457Z,993.14
2019-03-10T10:26:26.438Z,993.17
2019-03-10T10:27:26.409Z,993.12
2019-03-10T10:28:26.384Z,993.04
2019-03-10T10:29:26.361Z,993.04
2019-03-10T10:30:26.382Z,992.97
2019-03-10T10:31:26.313Z,992.89
2019-03-10T10:32:26.290Z,992.83
2019-03-10T10:33:26.266Z,992.86
2019-03-10T10:34:26.241Z,992.95
2019-03-10T10:35:26.217Z,993.03
2019-03-10T10:36:26.196Z,993.07
2019-03-10T10:37:26.180Z,993.02
2019-03-10T10:38:26.151Z,992.95
2019-03-10T10:39:26.129Z,992.90
2019-03-10T10:40:26.099Z,992.86
2019-03-10T10:41:26.074Z,992.84
2019-03-10T10:42:26.050Z,992.80
2019-03-10T10:43:26.028Z,992.76
2019-03-10T10:44:26.003Z,992.66
2019-03-10T10:45:25.979Z,992.60
2019-03-10T10:46:25.956Z,992.64
2019-03-10T10:47:25.929Z,992.60
2019-03-10T10:48:25.910Z,992.55
2019-03-10T10:49:25.885Z,992.62
2019-03-10T10:50:25.864Z,992.60
2019-03-10T10:51:25.845Z,992.57
2019-03-10T10:52:25.813Z,992.57
2019-03-10T10:53:25.790Z,992.53
2019-03-10T10:54:25.765Z,992.52
2019-03-10T10:55:25.740Z,992.49
2019-03-10T10:56:25.716Z,992.44
2019-03-10T10:57:25.712Z,992.40
2019-03-10T10:58:25.669Z,992.41
2019-03-10T10:59:25.645Z,992.36
2019-03-10T11:00:25.632Z,992.35
2019-03-10T11:01:25.595Z,992.28
2019-03-10T11:02:25.574Z,992.28
2019-03-10T11:03:25.549Z,992.27
2019-03-10T11:04:25.662Z,992.24
2019-03-10T11:05:25.499Z,992.21
2019-03-10T11:06:25.476Z,992.20
2019-03-10T11:07:25.454Z,992.17
2019-03-10T11:08:25.429Z,992.11
2019-03-10T11:09:25.404Z,992.13
2019-03-10T11:10:25.381Z,992.12
2019-03-10T11:11:25.356Z,992.10
2019-03-10T11:12:25.343Z,992.09
2019-03-10T11:13:25.309Z,992.04
2019-03-10T11:14:25.285Z,992.02
2019-03-10T11:15:25.260Z,991.99
2019-03-10T11:16:25.237Z,991.93
2019-03-10T11:17:25.232Z,991.95
2019-03-10T11:18:25.190Z,991.94
2019-03-10T11:19:25.165Z,991.93
2019-03-10T11:20:25.143Z,991.95
2019-03-10T11:21:25.123Z,991.92
2019-03-10T11:22:25.102Z,991.95
2019-03-10T11:23:25.071Z,991.96
2019-03-10T11:24:25.048Z,991.92
2019-03-10T11:25:25.025Z,991.91
2019-03-10T11:26:25.000Z,991.96
2019-03-10T11:27:24.976Z,991.93
2019-03-10T11:28:24.966Z,991.91
2019-03-10T11:29:24.932Z,991.83
2019-03-10T11:30:24.908Z,991.85
2019-03-10T11:31:24.885Z,991.87
2019-03-10T11:32:24.859Z,991.86
2019-03-10T11:33:27.431Z,991.82
2019-03-10T11:34:24.811Z,991.81
2019-03-10T11:35:24.788Z,991.84
2019-03-10T11:36:24.765Z,991.75
2019-03-10T11:37:24.775Z,991.72
2019-03-10T11:38:24.718Z,991.75
2019-03-10T11:39:24.695Z,991.75
2019-03-10T11:40:24.670Z,991.61
2019-03-10T11:41:33.339Z,991.60
2019-03-10T11:42:24.622Z,991.53
2019-03-10T11:43:24.600Z,991.53
2019-03-10T11:44:24.574Z,991.48
2019-03-10T11:45:24.551Z,991.52
2019-03-10T11:46:24.535Z,991.45
2019-03-10T11:47:24.505Z,991.43
2019-03-10T11:48:24.484Z,991.40
2019-03-10T11:49:24.460Z,991.33
2019-03-10T11:50:24.433Z,991.36
2019-03-10T11:51:24.418Z,991.30
2019-03-10T11:52:24.390Z,991.30
2019-03-10T11:53:25.730Z,991.29
2019-03-10T11:54:24.342Z,991.24
2019-03-10T11:55:24.414Z,991.18
2019-03-10T11:56:24.373Z,991.21
2019-03-10T11:57:24.267Z,991.20
2019-03-10T11:58:24.246Z,991.15
2019-03-10T11:59:24.223Z,991.08
2019-03-10T12:00:24.301Z,991.08
2019-03-10T12:01:24.182Z,991.13
2019-03-10T12:02:24.151Z,991.11
2019-03-10T12:03:24.129Z,991.14
2019-03-10T12:04:24.102Z,991.08
2019-03-10T12:05:24.081Z,991.07
2019-03-10T12:06:24.067Z,991.03
2019-03-10T12:07:24.042Z,991.04
2019-03-10T12:08:24.018Z,990.96
2019-03-10T12:09:23.986Z,990.92
2019-03-10T12:10:23.963Z,990.91
2019-03-10T12:11:23.937Z,990.81
2019-03-10T12:12:23.918Z,990.75
2019-03-10T12:13:23.890Z,990.74
2019-03-10T12:14:23.870Z,990.69
2019-03-10T12:15:23.842Z,990.67
2019-03-10T12:16:23.833Z,990.61
2019-03-10T12:17:23.812Z,990.61
2019-03-10T12:18:23.776Z,990.63